Time;durP1;ratioP1;P1;durP2;ratioP2;P2;SDS_P1;SDS_P2;PMS_P1;PMS_P2;Temp;Humidity;BMP_temperature;BMP_pressure;BME280_temperature;BME280_humidity;BME280_pressure;Samples;Min_cycle;Max_cycle;Signal;HPM_P1;HPM_P2
2023/01/25 00:02:17;;;;;;;33.35;15.48;;;;;;;0.10;100.00;98880.09;4963714;28;20047;-60
2023/01/25 00:04:44;;;;;;;36.33;15.88;;;;;;;0.09;100.00;98878.44;4966471;28;20465;-61
2023/01/25 00:07:10;;;;;;;32.08;14.55;;;;;;;0.10;100.00;98874.78;4959080;28;20138;-60
2023/01/25 00:09:37;;;;;;;34.33;14.77;;;;;;;0.12;100.00;98871.97;4962423;28;20122;-60
2023/01/25 00:12:03;;;;;;;37.28;15.68;;;;;;;0.12;100.00;98867.47;4959991;28;20746;-60
2023/01/25 00:14:30;;;;;;;27.45;14.32;;;;;;;0.15;100.00;98866.34;4961023;28;20090;-60
2023/01/25 00:16:56;;;;;;;33.70;15.95;;;;;;;0.18;100.00;98876.69;4957456;28;20532;-60
2023/01/25 00:19:23;;;;;;;33.10;15.95;;;;;;;0.23;100.00;98876.28;4964906;28;20042;-59
2023/01/25 00:21:49;;;;;;;31.30;15.70;;;;;;;0.23;100.00;98865.63;4949301;28;20106;-61
2023/01/25 00:24:16;;;;;;;28.17;13.68;;;;;;;0.15;100.00;98863.69;4963068;28;20050;-60
2023/01/25 00:26:43;;;;;;;29.27;14.50;;;;;;;0.16;100.00;98859.19;4959733;28;20586;-60
2023/01/25 00:29:12;;;;;;;27.70;14.52;;;;;;;0.25;100.00;98856.47;4952532;28;20075;-60
2023/01/25 00:37:52;;;;;;;30.25;15.13;;;;;;;0.27;100.00;98847.50;4960856;28;20042;-60
2023/01/25 00:40:19;;;;;;;28.83;14.50;;;;;;;0.33;100.00;98852.25;4963219;28;20051;-61
2023/01/25 00:42:45;;;;;;;31.45;15.57;;;;;;;0.25;100.00;98847.63;4954720;28;20061;-60
2023/01/25 00:45:12;;;;;;;30.38;14.52;;;;;;;0.30;100.00;98849.88;4954411;28;20042;-60
2023/01/25 00:47:39;;;;;;;35.03;15.88;;;;;;;0.31;100.00;98847.06;4963260;28;20042;-60
2023/01/25 00:50:07;;;;;;;37.83;15.23;;;;;;;0.32;100.00;98840.72;4955893;28;20050;-60
2023/01/25 00:59:44;;;;;;;29.65;14.50;;;;;;;0.20;100.00;98841.91;4965324;28;20680;-61
2023/01/25 01:02:12;;;;;;;29.65;14.20;;;;;;;0.17;100.00;98843.06;4957162;28;20043;-61
2023/01/25 01:04:39;;;;;;;31.83;15.23;;;;;;;0.18;100.00;98846.56;4956679;28;20107;-60
2023/01/25 01:16:19;;;;;;;;;;;;;;;0.18;100.00;98830.59;4959415;28;20054;-60
2023/01/25 01:18:46;;;;;;;31.25;13.80;;;;;;;0.14;100.00;98827.38;4960376;28;19922;-60
2023/01/25 01:21:13;;;;;;;27.13;14.05;;;;;;;0.17;100.00;98834.22;4964086;28;20490;-60
2023/01/25 01:23:40;;;;;;;30.20;13.93;;;;;;;0.09;100.00;98833.16;4958958;28;20130;-60
2023/01/25 01:26:11;;;;;;;30.60;14.88;;;;;;;0.14;100.00;98830.03;4951100;28;20043;-60
2023/01/25 01:28:40;;;;;;;31.48;14.93;;;;;;;0.15;100.00;98834.41;4961707;28;20617;-60
2023/01/25 01:31:11;;;;;;;33.65;14.52;;;;;;;0.14;100.00;98830.03;4957308;28;20050;-61
2023/01/25 01:33:43;;;;;;;33.70;15.65;;;;;;;0.03;100.00;98827.59;4951014;28;20047;-60
2023/01/25 01:36:13;;;;;;;33.05;15.00;;;;;;;0.11;100.00;98825.84;4954109;28;20046;-60
2023/01/25 01:38:40;;;;;;;37.35;16.05;;;;;;;0.04;100.00;98831.91;4960077;28;20455;-61
2023/01/25 01:41:08;;;;;;;36.33;15.65;;;;;;;0.08;100.00;98828.78;4960955;28;20047;-61
2023/01/25 01:43:36;;;;;;;28.35;13.43;;;;;;;0.10;100.00;98831.31;4978115;28;20043;-60
2023/01/25 01:46:36;;;;;;;28.63;14.05;;;;;;;0.15;100.00;98833.53;4958436;28;20039;-61
2023/01/25 01:49:22;;;;;;;33.40;15.45;;;;;;;0.19;100.00;98833.09;4952118;28;20421;-60
2023/01/25 01:51:57;;;;;;;32.35;16.13;;;;;;;0.17;100.00;98836.88;4959522;28;20097;-60
2023/01/25 01:54:51;;;;;;;37.10;15.77;;;;;;;0.20;100.00;98837.44;4954080;28;20406;-60
2023/01/25 01:57:25;;;;;;;30.30;14.45;;;;;;;0.18;100.00;98838.59;4955535;28;20054;-60
2023/01/25 02:00:03;;;;;;;31.63;15.23;;;;;;;0.16;100.00;98829.88;4978819;28;20611;-61
2023/01/25 02:02:39;;;;;;;30.20;14.82;;;;;;;0.16;100.00;98835.22;4959979;28;20043;-60
2023/01/25 02:05:15;;;;;;;29.00;14.15;;;;;;;0.10;100.00;98828.66;4956073;28;20069;-60
2023/01/25 02:07:43;;;;;;;30.17;14.77;;;;;;;0.11;100.00;98835.69;4952279;28;20138;-60
2023/01/25 02:10:11;;;;;;;31.83;14.55;;;;;;;0.15;100.00;98829.06;4957568;28;20053;-60
2023/01/25 02:12:42;;;;;;;32.03;15.75;;;;;;;0.12;100.00;98824.84;4956481;28;21215;-60
2023/01/25 02:15:09;;;;;;;29.35;14.05;;;;;;;0.27;100.00;98821.69;4957560;28;20051;-59
2023/01/25 02:17:38;;;;;;;33.70;14.88;;;;;;;0.25;100.00;98819.19;4962073;28;20055;-60
2023/01/25 02:20:43;;;;;;;28.98;15.07;;;;;;;0.32;100.00;98811.41;4954431;28;20043;-60
2023/01/25 02:23:39;;;;;;;26.90;14.00;;;;;;;0.18;100.00;98811.94;4960349;28;20402;-60
2023/01/25 02:26:06;;;;;;;27.50;14.07;;;;;;;0.21;100.00;98812.47;4949418;28;20039;-60
2023/01/25 02:28:48;;;;;;;29.67;14.05;;;;;;;0.15;100.00;98812.22;4956054;28;20027;-60
2023/01/25 02:31:16;;;;;;;33.35;15.00;;;;;;;0.08;100.00;98812.81;4960306;28;20043;-61
2023/01/25 02:33:43;;;;;;;28.02;14.60;;;;;;;0.05;100.00;98818.47;4950862;28;20078;-61
2023/01/25 02:36:10;;;;;;;31.75;14.88;;;;;;;0.08;100.00;98810.16;4955662;28;20094;-61
2023/01/25 02:38:42;;;;;;;36.72;15.43;;;;;;;0.03;100.00;98812.44;4953134;28;20050;-60
2023/01/25 02:41:16;;;;;;;32.30;15.32;;;;;;;0.07;100.00;98810.31;4948103;28;20057;-59
2023/01/25 02:43:42;;;;;;;34.50;14.98;;;;;;;0.15;100.00;98804.25;4961622;28;20134;-60
2023/01/25 02:46:14;;;;;;;32.88;14.45;;;;;;;0.09;100.00;98806.53;4960542;28;20031;-60
2023/01/25 02:48:43;;;;;;;30.63;12.82;;;;;;;0.15;100.00;98809.56;4962523;28;20047;-59
2023/01/25 02:51:11;;;;;;;31.45;14.75;;;;;;;0.09;100.00;98801.19;4964245;28;20046;-60
2023/01/25 02:53:39;;;;;;;28.02;13.73;;;;;;;0.08;100.00;98796.84;4957755;28;20046;-59
2023/01/25 02:56:05;;;;;;;28.70;14.98;;;;;;;0.09;100.00;98787.88;4959584;28;20139;-60
2023/01/25 02:58:32;;;;;;;29.38;14.10;;;;;;;0.04;100.00;98791.97;4959866;28;20114;-60
2023/01/25 03:00:58;;;;;;;32.33;14.52;;;;;;;0.06;100.00;98792.66;4955396;28;20043;-61
2023/01/25 03:03:25;;;;;;;30.35;14.18;;;;;;;-0.06;100.00;98792.00;4953440;28;20045;-60
2023/01/25 03:05:52;;;;;;;34.40;14.77;;;;;;;-0.04;100.00;98784.72;4959696;28;20051;-60
2023/01/25 03:08:19;;;;;;;28.08;14.27;;;;;;;-0.02;100.00;98780.09;4957488;28;20756;-59
2023/01/25 03:10:48;;;;;;;34.05;14.60;;;;;;;-0.03;100.00;98779.22;4967894;28;20043;-60
2023/01/25 03:13:15;;;;;;;28.27;13.82;;;;;;;0.01;100.00;98782.47;4962501;28;20047;-60
2023/01/25 03:15:42;;;;;;;33.97;14.88;;;;;;;0.06;100.00;98771.34;4959149;28;20047;-59
2023/01/25 03:18:08;;;;;;;31.40;14.57;;;;;;;-0.07;100.00;98769.88;4963447;28;20462;-60
2023/01/25 03:20:35;;;;;;;30.05;13.65;;;;;;;-0.06;100.00;98773.38;4957030;28;20689;-60
2023/01/25 03:23:01;;;;;;;30.35;14.20;;;;;;;-0.01;100.00;98771.94;4960458;28;20062;-60
2023/01/25 03:25:28;;;;;;;32.80;15.38;;;;;;;-0.05;100.00;98769.72;4952398;28;20050;-59
2023/01/25 03:28:08;;;;;;;32.67;15.05;;;;;;;-0.04;100.00;98768.75;4963134;28;20391;-59
2023/01/25 03:30:35;;;;;;;32.45;15.25;;;;;;;-0.11;100.00;98768.47;4966001;28;20043;-61
2023/01/25 03:33:03;;;;;;;37.25;17.92;;;;;;;-0.06;100.00;98768.91;4961007;28;20048;-59
2023/01/25 03:35:29;;;;;;;37.58;17.77;;;;;;;-0.17;100.00;98777.06;4959938;28;20035;-60
2023/01/25 03:37:56;;;;;;;32.78;15.88;;;;;;;-0.17;100.00;98772.59;4959275;28;20047;-61
2023/01/25 03:40:23;;;;;;;33.10;16.17;;;;;;;-0.11;100.00;98776.47;4957950;28;20656;-60
2023/01/25 03:42:52;;;;;;;36.85;16.05;;;;;;;-0.06;100.00;98778.69;4958237;28;20406;-60
2023/01/25 03:45:18;;;;;;;35.80;14.27;;;;;;;-0.04;100.00;98776.75;4960389;28;20043;-60
2023/01/25 03:47:45;;;;;;;30.95;14.40;;;;;;;-0.17;100.00;98769.94;4958217;28;20053;-61
2023/01/25 03:50:12;;;;;;;31.05;14.90;;;;;;;-0.11;100.00;98773.00;4955661;28;20046;-60
2023/01/25 03:52:44;;;;;;;34.25;16.48;;;;;;;-0.11;100.00;98775.66;4894179;28;1064392;-60
2023/01/25 03:55:10;;;;;;;31.95;15.13;;;;;;;-0.04;100.00;98768.75;4960046;28;20529;-60
2023/01/25 03:57:40;;;;;;;34.00;14.77;;;;;;;-0.01;100.00;98768.44;4963300;28;20038;-60
2023/01/25 04:00:08;;;;;;;38.78;16.23;;;;;;;-0.10;100.00;98769.34;4957537;28;20043;-60
2023/01/25 04:02:47;;;;;;;35.65;14.27;;;;;;;0.01;100.00;98771.81;4957483;28;20134;-60
2023/01/25 04:05:17;;;;;;;32.85;15.70;;;;;;;-0.12;100.00;98769.47;4964153;28;20043;-59
2023/01/25 04:07:45;;;;;;;34.30;13.27;;;;;;;-0.07;100.00;98761.06;4955188;28;20094;-60
2023/01/25 04:10:14;;;;;;;34.60;15.18;;;;;;;-0.16;100.00;98762.78;4957418;28;20130;-59
2023/01/25 04:12:44;;;;;;;33.22;15.32;;;;;;;-0.20;100.00;98772.88;4963226;28;20395;-59
2023/01/25 04:15:11;;;;;;;38.90;16.65;;;;;;;-0.16;100.00;98760.97;4965080;28;20078;-60
2023/01/25 04:17:38;;;;;;;33.58;15.25;;;;;;;-0.11;100.00;98770.31;4966325;28;20391;-60
2023/01/25 04:20:13;;;;;;;40.13;15.25;;;;;;;-0.12;100.00;98766.81;4955268;28;20118;-60
2023/01/25 04:22:39;;;;;;;30.27;15.38;;;;;;;-0.15;100.00;98762.63;4957668;28;20134;-60
2023/01/25 04:25:07;;;;;;;33.03;15.98;;;;;;;-0.20;100.00;98764.06;4962595;28;20047;-59
2023/01/25 04:27:37;;;;;;;36.10;14.98;;;;;;;-0.19;100.00;98755.09;4957577;28;20125;-60
2023/01/25 04:30:09;;;;;;;27.30;13.93;;;;;;;-0.22;100.00;98747.41;4957260;28;20134;-59
2023/01/25 04:32:36;;;;;;;38.95;15.68;;;;;;;-0.21;100.00;98741.94;4970685;28;20109;-60
2023/01/25 04:35:13;;;;;;;33.35;15.90;;;;;;;-0.17;100.00;98748.63;4961313;28;20044;-60
2023/01/25 04:37:39;;;;;;;34.72;15.13;;;;;;;-0.12;100.00;98752.69;4955090;28;20065;-59
2023/01/25 04:40:08;;;;;;;27.85;13.05;;;;;;;-0.11;100.00;98752.50;4957294;28;20060;-59
2023/01/25 04:42:40;;;;;;;37.80;15.43;;;;;;;-0.11;100.00;98747.19;4963338;28;20047;-60
2023/01/25 04:45:07;;;;;;;34.25;15.23;;;;;;;-0.12;100.00;98742.03;4955097;28;20047;-60
2023/01/25 04:47:34;;;;;;;35.38;16.02;;;;;;;-0.16;100.00;98750.31;4953474;28;20550;-60
2023/01/25 04:50:01;;;;;;;32.63;14.52;;;;;;;-0.19;100.00;98757.75;4958839;28;20047;-60
2023/01/25 04:52:29;;;;;;;31.20;13.80;;;;;;;-0.09;100.00;98755.03;4956455;28;20051;-60
2023/01/25 04:54:56;;;;;;;30.08;13.77;;;;;;;-0.02;100.00;98746.31;4954904;28;20128;-58
2023/01/25 04:57:23;;;;;;;33.92;15.40;;;;;;;-0.04;100.00;98739.47;4962567;28;20039;-59
2023/01/25 04:59:51;;;;;;;28.55;13.35;;;;;;;-0.08;100.00;98740.75;4957893;28;20046;-61
2023/01/25 05:02:19;;;;;;;28.13;13.27;;;;;;;-0.06;100.00;98744.09;4982250;28;20133;-60
2023/01/25 05:04:45;;;;;;;31.33;14.45;;;;;;;-0.03;100.00;98743.78;4960381;28;20049;-60
2023/01/25 05:07:12;;;;;;;31.00;13.80;;;;;;;-0.02;100.00;98740.13;4959031;28;20053;-60
2023/01/25 05:09:39;;;;;;;27.60;13.77;;;;;;;-0.01;100.00;98737.31;4959073;28;20058;-60
2023/01/25 05:12:10;;;;;;;27.08;13.57;;;;;;;-0.04;100.00;98739.47;4961843;28;20525;-61
2023/01/25 05:14:49;;;;;;;31.20;13.82;;;;;;;-0.08;100.00;98732.75;4960601;28;20046;-60
2023/01/25 05:17:16;;;;;;;29.75;14.00;;;;;;;-0.12;100.00;98734.03;4950633;28;20046;-59
2023/01/25 05:19:43;;;;;;;29.88;12.50;;;;;;;-0.12;100.00;98740.19;4959666;28;20035;-59
2023/01/25 05:22:14;;;;;;;30.98;14.23;;;;;;;-0.07;100.00;98734.44;4960614;28;20047;-60
2023/01/25 05:24:46;;;;;;;24.42;13.18;;;;;;;-0.11;100.00;98733.06;4957185;28;20042;-60
2023/01/25 05:27:18;;;;;;;26.75;12.82;;;;;;;-0.16;100.00;98728.16;4958954;28;20434;-59
2023/01/25 05:30:05;;;;;;;27.38;12.77;;;;;;;-0.15;100.00;98736.00;4936748;28;20170;-60
2023/01/25 05:32:38;;;;;;;31.17;14.15;;;;;;;-0.09;100.00;98739.03;4941624;28;20109;-59
2023/01/25 05:35:05;;;;;;;30.10;13.05;;;;;;;-0.15;100.00;98741.31;4957882;28;20461;-59
2023/01/25 05:37:31;;;;;;;27.60;11.63;;;;;;;-0.19;100.00;98741.78;4958298;28;20038;-61
2023/01/25 05:40:05;;;;;;;28.50;13.07;;;;;;;-0.27;100.00;98738.03;4961279;28;20043;-59
2023/01/25 05:42:35;;;;;;;24.60;11.68;;;;;;;-0.19;100.00;98747.13;4956993;28;20054;-60
2023/01/25 05:45:06;;;;;;;26.73;11.45;;;;;;;-0.23;100.00;98740.41;4958391;28;20051;-61
2023/01/25 05:47:34;;;;;;;31.10;13.63;;;;;;;-0.25;100.00;98734.38;4958355;28;20130;-60
2023/01/25 05:50:02;;;;;;;33.13;15.32;;;;;;;-0.30;100.00;98730.34;4958597;28;20047;-60
2023/01/25 05:52:45;;;;;;;32.13;14.20;;;;;;;-0.18;100.00;98725.66;4974019;28;20482;-60
2023/01/25 05:55:11;;;;;;;32.55;13.68;;;;;;;-0.19;100.00;98733.81;4946477;28;20121;-59
2023/01/25 05:57:41;;;;;;;31.63;13.18;;;;;;;-0.20;100.00;98730.28;4961405;28;20050;-60
2023/01/25 06:00:09;;;;;;;27.48;11.50;;;;;;;-0.06;100.00;98731.63;4963440;28;20101;-59
2023/01/25 06:02:41;;;;;;;26.00;12.95;;;;;;;-0.13;100.00;98725.22;4955636;28;20561;-60
2023/01/25 06:05:13;;;;;;;29.40;13.77;;;;;;;-0.08;100.00;98724.78;4960848;28;20046;-60
2023/01/25 06:07:39;;;;;;;32.10;13.60;;;;;;;-0.11;100.00;98711.75;4960572;28;20066;-60
2023/01/25 06:10:07;;;;;;;28.83;13.05;;;;;;;-0.14;100.00;98716.38;4959283;28;20038;-60
2023/01/25 06:12:34;;;;;;;25.85;12.48;;;;;;;-0.08;100.00;98714.13;4959392;28;20047;-60
2023/01/25 06:15:00;;;;;;;26.73;12.35;;;;;;;0.02;100.00;98704.22;4963007;28;20035;-60
2023/01/25 06:17:27;;;;;;;32.60;13.35;;;;;;;0.02;100.00;98709.56;4954080;28;20101;-61
2023/01/25 06:20:17;;;;;;;25.30;11.57;;;;;;;0.01;100.00;98707.88;4955422;28;20046;-60
2023/01/25 06:22:56;;;;;;;27.58;12.82;;;;;;;0.01;100.00;98704.38;4956338;28;20735;-60
2023/01/25 06:25:23;;;;;;;24.30;11.52;;;;;;;-0.08;100.00;98706.94;4963289;28;20097;-62
2023/01/25 06:27:49;;;;;;;24.33;11.73;;;;;;;-0.07;100.00;98711.28;4956788;28;20047;-63
2023/01/25 06:30:16;;;;;;;24.92;13.55;;;;;;;-0.05;100.00;98705.81;4959421;28;20043;-58
2023/01/25 06:32:42;;;;;;;26.33;11.73;;;;;;;-0.03;100.00;98707.34;4952316;28;20117;-59
2023/01/25 06:35:09;;;;;;;26.75;14.93;;;;;;;-0.08;100.00;98704.28;4953008;28;20455;-58
2023/01/25 06:37:36;;;;;;;28.13;13.10;;;;;;;-0.14;100.00;98707.56;4952418;28;20059;-56
2023/01/25 06:40:03;;;;;;;28.25;13.57;;;;;;;-0.25;100.00;98697.97;4956314;28;20560;-59
2023/01/25 06:42:30;;;;;;;23.00;11.07;;;;;;;-0.29;100.00;98701.91;4956125;28;20105;-59
2023/01/25 06:44:56;;;;;;;26.83;12.57;;;;;;;-0.35;100.00;98698.00;4954653;28;20051;-57
2023/01/25 06:47:23;;;;;;;25.73;11.90;;;;;;;-0.27;100.00;98695.44;4962299;28;20049;-58
2023/01/25 06:49:49;;;;;;;29.65;13.07;;;;;;;-0.15;100.00;98700.53;4956001;28;20122;-57
2023/01/25 06:52:16;;;;;;;27.10;12.82;;;;;;;-0.14;100.00;98695.06;4956567;28;20047;-58
2023/01/25 06:54:43;;;;;;;28.65;12.48;;;;;;;-0.20;100.00;98684.19;4952844;28;20043;-57
2023/01/25 06:57:10;;;;;;;29.42;12.38;;;;;;;-0.22;100.00;98699.50;4931233;28;20122;-58
2023/01/25 06:59:37;;;;;;;27.75;12.27;;;;;;;-0.22;100.00;98694.97;4959185;28;20047;-57
2023/01/25 07:02:04;;;;;;;26.45;12.00;;;;;;;-0.28;100.00;98695.59;4958266;28;20039;-56
2023/01/25 07:04:30;;;;;;;25.67;12.80;;;;;;;-0.15;100.00;98689.88;4955129;28;20046;-58
2023/01/25 07:06:57;;;;;;;30.45;12.27;;;;;;;-0.15;100.00;98693.41;4963478;28;20051;-56
2023/01/25 07:09:23;;;;;;;23.95;11.27;;;;;;;-0.12;100.00;98689.59;4953057;28;20043;-58
2023/01/25 07:11:50;;;;;;;21.25;11.20;;;;;;;-0.19;100.00;98686.69;4962834;28;20093;-59
2023/01/25 07:14:16;;;;;;;22.80;12.02;;;;;;;-0.18;100.00;98692.88;4963280;28;20110;-58
2023/01/25 07:16:43;;;;;;;25.77;12.05;;;;;;;-0.19;100.00;98691.22;4958263;28;20130;-58
2023/01/25 07:19:12;;;;;;;23.60;11.77;;;;;;;-0.28;100.00;98690.28;4957792;28;20049;-59
2023/01/25 07:21:38;;;;;;;21.63;10.82;;;;;;;-0.29;100.00;98681.44;4962880;28;20506;-59
2023/01/25 07:24:05;;;;;;;22.67;11.00;;;;;;;-0.31;100.00;98683.44;4950606;28;20574;-60
2023/01/25 07:26:32;;;;;;;21.75;10.95;;;;;;;-0.30;100.00;98678.91;4961435;28;20053;-57
2023/01/25 07:28:58;;;;;;;22.25;11.05;;;;;;;-0.27;100.00;98679.47;4962499;28;20043;-58
2023/01/25 07:31:25;;;;;;;25.80;10.18;;;;;;;-0.19;100.00;98684.03;4959870;28;20047;-60
2023/01/25 07:33:54;;;;;;;22.10;11.27;;;;;;;-0.27;100.00;98683.94;4956122;28;20078;-59
2023/01/25 07:36:21;;;;;;;24.92;12.00;;;;;;;-0.18;100.00;98674.25;4960116;28;20097;-59
2023/01/25 07:38:51;;;;;;;19.33;9.50;;;;;;;-0.28;100.00;98672.50;4962515;28;20485;-59
2023/01/25 07:41:17;;;;;;;22.80;11.48;;;;;;;-0.17;100.00;98675.91;4964214;28;20058;-57
2023/01/25 07:43:44;;;;;;;23.65;11.27;;;;;;;-0.21;100.00;98667.41;4956033;28;20138;-57
2023/01/25 07:46:16;;;;;;;21.45;11.15;;;;;;;-0.27;100.00;98666.16;4962150;28;20047;-59
2023/01/25 07:48:51;;;;;;;22.50;10.68;;;;;;;-0.20;100.00;98677.06;4955247;28;20143;-59
2023/01/25 07:51:23;;;;;;;18.80;9.85;;;;;;;-0.17;100.00;98670.59;4952534;28;20130;-58
2023/01/25 07:53:56;;;;;;;21.65;10.73;;;;;;;-0.10;100.00;98669.00;4959865;28;20050;-58
2023/01/25 07:56:25;;;;;;;22.20;11.35;;;;;;;-0.09;100.00;98669.81;4957772;28;20133;-60
2023/01/25 07:58:56;;;;;;;21.83;10.25;;;;;;;-0.04;100.00;98665.72;4955790;28;20053;-57
2023/01/25 08:01:25;;;;;;;23.70;10.73;;;;;;;-0.01;100.00;98670.75;4958038;28;20122;-59
2023/01/25 08:03:55;;;;;;;22.05;11.55;;;;;;;-0.05;100.00;98668.53;4953697;28;20066;-58
2023/01/25 08:06:26;;;;;;;20.02;10.40;;;;;;;-0.07;100.00;98675.84;4961264;28;20534;-58
2023/01/25 08:08:53;;;;;;;19.65;11.70;;;;;;;-0.05;100.00;98672.03;4956353;28;20462;-57
2023/01/25 08:11:26;;;;;;;22.92;11.73;;;;;;;-0.02;100.00;98676.22;4952756;28;20130;-57
2023/01/25 08:13:53;;;;;;;20.08;10.85;;;;;;;-0.05;100.00;98682.69;4958173;28;20148;-59
2023/01/25 08:16:23;;;;;;;20.85;11.70;;;;;;;-0.02;100.00;98682.41;4957015;28;21062;-58
2023/01/25 08:18:52;;;;;;;17.40;9.63;;;;;;;0.08;100.00;98676.97;4959720;28;20081;-58
2023/01/25 08:21:18;;;;;;;20.55;9.95;;;;;;;0.03;100.00;98681.94;4953486;28;20050;-58
2023/01/25 08:23:45;;;;;;;22.70;12.18;;;;;;;0.02;100.00;98680.25;4957405;28;20133;-59
2023/01/25 08:26:15;;;;;;;19.17;10.25;;;;;;;0.16;100.00;98688.72;4959192;28;20073;-58
2023/01/25 08:28:42;;;;;;;19.67;10.20;;;;;;;0.23;100.00;98673.78;4957319;28;20073;-59
2023/01/25 08:31:15;;;;;;;17.88;9.52;;;;;;;0.24;100.00;98670.97;4958665;28;20398;-59
2023/01/25 08:33:43;;;;;;;19.85;8.80;;;;;;;0.37;100.00;98672.44;4960103;28;20055;-58
2023/01/25 08:36:10;;;;;;;18.27;10.45;;;;;;;0.17;100.00;98674.38;4959599;28;20081;-58
2023/01/25 08:38:36;;;;;;;27.00;14.07;;;;;;;0.07;100.00;98664.66;4973071;28;20126;-59
2023/01/25 08:41:13;;;;;;;26.17;14.25;;;;;;;-0.01;100.00;98670.75;4962194;28;20046;-59
2023/01/25 08:43:39;;;;;;;20.60;11.93;;;;;;;0.14;100.00;98672.06;4957231;28;20078;-57
2023/01/25 08:46:06;;;;;;;21.00;10.48;;;;;;;0.19;100.00;98664.44;4962449;28;20050;-58
2023/01/25 08:48:33;;;;;;;23.77;12.20;;;;;;;0.09;100.00;98659.19;4964322;28;20055;-60
2023/01/25 08:51:00;;;;;;;18.23;9.40;;;;;;;0.22;100.00;98654.31;4962172;28;20058;-59
2023/01/25 08:53:27;;;;;;;16.67;9.00;;;;;;;0.31;100.00;98651.72;4957372;28;20126;-58
2023/01/25 08:55:54;;;;;;;20.33;10.07;;;;;;;0.29;100.00;98651.84;4961070;28;20042;-57
2023/01/25 08:58:21;;;;;;;15.75;8.75;;;;;;;0.33;100.00;98649.75;4962456;28;20593;-60
2023/01/25 09:00:48;;;;;;;22.23;9.98;;;;;;;0.28;100.00;98646.69;4955711;28;20483;-59
2023/01/25 09:03:16;;;;;;;17.90;8.98;;;;;;;0.32;100.00;98645.38;4958599;28;20047;-59
2023/01/25 09:05:43;;;;;;;21.75;9.45;;;;;;;0.44;100.00;98643.34;4956845;28;20628;-59
2023/01/25 09:08:10;;;;;;;18.95;10.23;;;;;;;0.29;100.00;98645.72;4961835;28;20035;-57
2023/01/25 09:10:37;;;;;;;17.55;8.82;;;;;;;0.40;100.00;98647.28;4960276;28;20031;-59
2023/01/25 09:13:03;;;;;;;14.27;9.00;;;;;;;0.46;100.00;98647.50;4961506;28;20130;-57
2023/01/25 09:15:33;;;;;;;20.30;10.50;;;;;;;0.48;100.00;98642.03;4965605;28;20070;-57
2023/01/25 09:17:59;;;;;;;21.58;11.20;;;;;;;0.54;100.00;98636.06;4963053;28;20700;-57
2023/01/25 09:20:26;;;;;;;33.28;15.82;;;;;;;0.27;100.00;98637.03;4958554;28;20045;-58
2023/01/25 09:22:54;;;;;;;24.92;11.85;;;;;;;0.27;100.00;98640.53;4962801;28;20127;-58
2023/01/25 09:25:21;;;;;;;25.83;11.40;;;;;;;0.34;100.00;98640.75;4956524;28;20047;-59
2023/01/25 09:27:50;;;;;;;20.88;9.75;;;;;;;0.35;100.00;98637.09;4961622;28;20462;-57
2023/01/25 09:30:17;;;;;;;18.25;9.93;;;;;;;0.45;100.00;98637.00;4960263;28;20077;-57
2023/01/25 09:32:50;;;;;;;27.00;11.77;;;;;;;0.46;100.00;98625.34;4944193;28;20067;-59
2023/01/25 09:35:16;;;;;;;23.90;10.70;;;;;;;0.42;100.00;98627.50;4963577;28;20642;-58
2023/01/25 09:37:43;;;;;;;20.95;11.70;;;;;;;0.23;100.00;98639.16;4965308;28;20113;-58
2023/01/25 09:40:20;;;;;;;22.38;11.35;;;;;;;0.31;100.00;98633.06;4960541;28;20038;-58
2023/01/25 09:42:58;;;;;;;18.48;11.00;;;;;;;0.46;100.00;98638.66;4964147;28;20046;-59
2023/01/25 09:45:34;;;;;;;24.90;13.55;;;;;;;0.33;100.00;98644.41;4959782;28;20035;-58
2023/01/25 09:48:18;;;;;;;18.25;9.32;;;;;;;0.28;100.00;98642.19;4956607;28;20095;-57
2023/01/25 09:51:24;;;;;;;16.30;8.35;;;;;;;0.46;100.00;98642.19;4955417;28;20039;-59
2023/01/25 09:53:55;;;;;;;16.13;8.38;;;;;;;0.59;100.00;98641.75;4944683;28;20038;-58
2023/01/25 09:56:29;;;;;;;20.25;9.00;;;;;;;0.61;100.00;98631.78;4957154;28;20055;-60
2023/01/25 09:59:00;;;;;;;16.92;8.52;;;;;;;0.58;100.00;98636.56;4951209;28;20034;-59
2023/01/25 10:01:37;;;;;;;15.82;8.43;;;;;;;0.63;100.00;98635.13;4964097;28;20031;-57
2023/01/25 10:04:15;;;;;;;15.07;8.57;;;;;;;0.52;100.00;98627.41;4961956;28;20035;-59
2023/01/25 10:06:45;;;;;;;16.58;8.48;;;;;;;0.54;100.00;98627.22;4961928;28;20035;-58
2023/01/25 10:09:36;;;;;;;18.38;8.77;;;;;;;0.67;100.00;98629.47;4960855;28;20047;-57
2023/01/25 10:12:19;;;;;;;21.75;9.98;;;;;;;0.78;100.00;98623.91;4954513;28;20046;-59
2023/01/25 10:14:46;;;;;;;20.15;10.73;;;;;;;0.77;100.00;98620.38;4961640;28;20043;-59
2023/01/25 10:17:31;;;;;;;22.90;11.27;;;;;;;0.61;100.00;98615.78;4958121;28;20094;-57
2023/01/25 10:20:16;;;;;;;15.50;7.97;;;;;;;0.65;100.00;98621.63;4951292;28;20046;-59
2023/01/25 10:22:51;;;;;;;15.82;8.80;;;;;;;0.76;100.00;98624.06;4963660;28;20054;-59
2023/01/25 10:25:39;;;;;;;19.30;9.98;;;;;;;0.61;100.00;98615.78;4957398;28;20132;-59
2023/01/25 10:28:28;;;;;;;18.90;9.18;;;;;;;0.25;100.00;98611.38;4963642;28;20050;-59
2023/01/25 10:31:03;;;;;;;15.13;8.68;;;;;;;0.03;100.00;98614.53;4952674;28;20059;-58
2023/01/25 10:33:34;;;;;;;16.35;8.30;;;;;;;0.18;100.00;98612.16;4958548;28;20073;-57
2023/01/25 10:36:04;;;;;;;16.15;8.70;;;;;;;0.35;100.00;98602.44;4956229;28;20047;-58
2023/01/25 10:38:44;;;;;;;19.20;9.35;;;;;;;0.48;100.00;98600.19;4960277;28;20054;-58
2023/01/25 10:41:13;;;;;;;17.08;9.30;;;;;;;0.59;100.00;98596.44;4960089;28;20098;-60
2023/01/25 10:43:40;;;;;;;12.75;6.90;;;;;;;0.73;100.00;98591.50;4961337;28;20043;-57
2023/01/25 10:46:23;;;;;;;16.05;9.13;;;;;;;0.82;100.00;98590.59;4961831;28;20039;-57
2023/01/25 10:48:50;;;;;;;13.32;7.05;;;;;;;0.82;100.00;98582.59;4955599;28;20046;-58
2023/01/25 10:51:31;;;;;;;17.58;8.57;;;;;;;0.84;100.00;98577.91;4957478;28;20043;-60
2023/01/25 10:54:01;;;;;;;17.23;8.57;;;;;;;0.92;100.00;98584.28;4958682;28;20046;-59
2023/01/25 10:56:31;;;;;;;14.85;7.88;;;;;;;1.01;100.00;98576.19;4957771;28;20043;-58
2023/01/25 10:59:26;;;;;;;17.15;7.95;;;;;;;0.98;100.00;98576.50;4958119;28;20055;-59
2023/01/25 11:01:52;;;;;;;19.73;9.40;;;;;;;0.51;100.00;98583.06;4961571;28;20596;-58
2023/01/25 11:04:23;;;;;;;18.48;9.48;;;;;;;0.47;100.00;98571.03;4963376;28;20050;-57
2023/01/25 11:06:51;;;;;;;16.88;7.90;;;;;;;0.56;100.00;98580.78;4963472;28;20118;-58
2023/01/25 11:09:20;;;;;;;16.52;9.10;;;;;;;0.39;100.00;98574.50;4966822;28;20094;-58
2023/01/25 11:12:01;;;;;;;16.35;8.70;;;;;;;0.23;100.00;98573.38;4966875;28;20046;-56
2023/01/25 11:14:30;;;;;;;15.23;8.27;;;;;;;0.18;100.00;98564.22;4958975;28;20070;-60
2023/01/25 11:16:59;;;;;;;17.58;9.40;;;;;;;0.31;100.00;98564.63;4967455;28;20556;-59
2023/01/25 11:19:29;;;;;;;17.17;8.80;;;;;;;0.38;100.00;98563.00;4957963;28;20510;-59
2023/01/25 11:21:57;;;;;;;18.33;9.18;;;;;;;0.41;100.00;98559.22;4960735;28;20406;-60
2023/01/25 11:24:33;;;;;;;16.55;8.43;;;;;;;0.38;100.00;98563.00;4958767;28;20043;-59
2023/01/25 11:27:24;;;;;;;16.88;8.90;;;;;;;0.19;100.00;98561.38;4964146;28;20043;-57
2023/01/25 11:30:14;;;;;;;18.50;8.25;;;;;;;0.19;100.00;98549.91;4958824;28;20050;-59
2023/01/25 11:32:41;;;;;;;14.88;7.57;;;;;;;0.30;100.00;98549.66;4965990;28;20129;-57
2023/01/25 11:35:19;;;;;;;19.65;9.18;;;;;;;0.49;100.00;98548.59;4966459;28;20118;-59
2023/01/25 11:38:12;;;;;;;16.25;9.18;;;;;;;0.50;100.00;98547.59;4962391;28;20039;-56
2023/01/25 11:40:55;;;;;;;14.25;7.32;;;;;;;0.49;100.00;98539.75;4961872;28;20114;-58
2023/01/25 11:43:59;;;;;;;18.38;8.57;;;;;;;0.50;100.00;98536.09;4962941;28;20054;-59
2023/01/25 11:46:49;;;;;;;16.13;8.63;;;;;;;0.45;100.00;98519.75;4966987;28;20038;-59
2023/01/25 11:49:26;;;;;;;14.57;9.05;;;;;;;0.14;100.00;98528.22;4960868;28;20034;-58
2023/01/25 11:52:22;;;;;;;13.60;8.30;;;;;;;0.07;100.00;98523.50;4960113;28;20035;-58
2023/01/25 11:54:58;;;;;;;15.25;8.32;;;;;;;0.13;100.00;98516.72;4957070;28;20544;-59
2023/01/25 11:57:41;;;;;;;14.55;7.88;;;;;;;0.20;100.00;98511.59;4959783;28;20047;-57